sensor_id;sensor_type;location;lat;lon;timestamp;pressure;altitude;pressure_sealevel;temperature;humidity
65553;BME280;52465;51.560;14.368;2023-04-07T00:01:19;100593.13;;;9.37;61.96
65553;BME280;52465;51.560;14.368;2023-04-07T00:03:45;100589.56;;;9.38;61.58
65553;BME280;52465;51.560;14.368;2023-04-07T00:06:11;100578.47;;;9.26;61.89
65553;BME280;52465;51.560;14.368;2023-04-07T00:08:37;100582.56;;;9.28;62.09
65553;BME280;52465;51.560;14.368;2023-04-07T00:11:02;100576.09;;;9.33;61.96
65553;BME280;52465;51.560;14.368;2023-04-07T00:13:28;100561.16;;;9.15;61.84
65553;BME280;52465;51.560;14.368;2023-04-07T00:15:54;100535.84;;;9.06;61.76
65553;BME280;52465;51.560;14.368;2023-04-07T00:18:19;100564.03;;;9.22;61.62
65553;BME280;52465;51.560;14.368;2023-04-07T00:20:52;100571.72;;;9.23;62.02
65553;BME280;52465;51.560;14.368;2023-04-07T00:23:18;100571.72;;;9.23;62.04
65553;BME280;52465;51.560;14.368;2023-04-07T00:25:44;100549.19;;;9.13;62.32
65553;BME280;52465;51.560;14.368;2023-04-07T00:28:09;100577.19;;;9.30;62.27
65553;BME280;52465;51.560;14.368;2023-04-07T00:30:35;100564.84;;;9.22;62.05
65553;BME280;52465;51.560;14.368;2023-04-07T00:33:00;100574.88;;;9.27;62.13
65553;BME280;52465;51.560;14.368;2023-04-07T00:35:29;100564.16;;;9.20;62.00
65553;BME280;52465;51.560;14.368;2023-04-07T00:40:19;100568.84;;;9.26;62.06
65553;BME280;52465;51.560;14.368;2023-04-07T00:42:46;100534.38;;;9.04;61.76
65553;BME280;52465;51.560;14.368;2023-04-07T00:45:11;100571.44;;;9.26;61.84
65553;BME280;52465;51.560;14.368;2023-04-07T00:47:37;100568.69;;;9.28;62.39
65553;BME280;52465;51.560;14.368;2023-04-07T00:50:03;100532.28;;;9.07;61.81
65553;BME280;52465;51.560;14.368;2023-04-07T00:52:31;100569.66;;;9.27;61.50
65553;BME280;52465;51.560;14.368;2023-04-07T00:54:58;100563.47;;;9.28;62.02
65553;BME280;52465;51.560;14.368;2023-04-07T00:57:25;100562.50;;;9.19;61.77
65553;BME280;52465;51.560;14.368;2023-04-07T00:59:52;100553.00;;;9.18;61.81
65553;BME280;52465;51.560;14.368;2023-04-07T01:02:36;100561.09;;;9.25;62.24
65553;BME280;52465;51.560;14.368;2023-04-07T01:05:09;100554.09;;;9.25;62.04
65553;BME280;52465;51.560;14.368;2023-04-07T01:07:50;100544.22;;;9.19;61.62
65553;BME280;52465;51.560;14.368;2023-04-07T01:10:22;100554.09;;;9.25;61.97
65553;BME280;52465;51.560;14.368;2023-04-07T01:13:10;100551.63;;;9.24;62.00
65553;BME280;52465;51.560;14.368;2023-04-07T01:18:09;100541.34;;;9.22;61.96
65553;BME280;52465;51.560;14.368;2023-04-07T01:20:37;100511.38;;;9.07;62.08
65553;BME280;52465;51.560;14.368;2023-04-07T01:23:07;100539.69;;;9.21;62.04
65553;BME280;52465;51.560;14.368;2023-04-07T01:25:59;100532.81;;;9.20;62.12
65553;BME280;52465;51.560;14.368;2023-04-07T01:31:08;100508.09;;;9.05;61.72
65553;BME280;52465;51.560;14.368;2023-04-07T01:33:34;100501.41;;;8.93;61.85
65553;BME280;52465;51.560;14.368;2023-04-07T01:36:02;100519.63;;;9.12;61.81
65553;BME280;52465;51.560;14.368;2023-04-07T01:38:29;100520.69;;;9.19;62.30
65553;BME280;52465;51.560;14.368;2023-04-07T01:40:55;100484.06;;;8.92;61.84
65553;BME280;52465;51.560;14.368;2023-04-07T01:43:24;100520.03;;;9.17;62.02
65553;BME280;52465;51.560;14.368;2023-04-07T01:45:50;100485.03;;;8.91;61.87
65553;BME280;52465;51.560;14.368;2023-04-07T01:48:17;100409.69;;;8.39;62.35
65553;BME280;52465;51.560;14.368;2023-04-07T01:50:46;100522.63;;;9.17;62.22
65553;BME280;52465;51.560;14.368;2023-04-07T01:53:16;100494.78;;;8.98;61.79
65553;BME280;52465;51.560;14.368;2023-04-07T01:55:42;100515.38;;;9.11;62.06
65553;BME280;52465;51.560;14.368;2023-04-07T01:58:09;100422.03;;;8.57;61.93
65553;BME280;52465;51.560;14.368;2023-04-07T02:00:54;100526.22;;;9.16;61.60
65553;BME280;52465;51.560;14.368;2023-04-07T02:03:22;100519.22;;;9.17;61.82
65553;BME280;52465;51.560;14.368;2023-04-07T02:05:57;100527.19;;;9.15;62.07
65553;BME280;52465;51.560;14.368;2023-04-07T02:08:30;100511.22;;;9.09;61.82
65553;BME280;52465;51.560;14.368;2023-04-07T02:10:57;100506.56;;;9.02;62.47
65553;BME280;52465;51.560;14.368;2023-04-07T02:13:31;100489.00;;;8.95;61.54
65553;BME280;52465;51.560;14.368;2023-04-07T02:15:58;100518.66;;;9.13;62.23
65553;BME280;52465;51.560;14.368;2023-04-07T02:18:27;100503.84;;;9.04;61.88
65553;BME280;52465;51.560;14.368;2023-04-07T02:20:58;100506.72;;;9.11;61.84
65553;BME280;52465;51.560;14.368;2023-04-07T02:23:24;100506.56;;;9.12;62.33
65553;BME280;52465;51.560;14.368;2023-04-07T02:25:50;100507.69;;;9.10;61.90
65553;BME280;52465;51.560;14.368;2023-04-07T02:28:15;100509.47;;;9.09;61.67
65553;BME280;52465;51.560;14.368;2023-04-07T02:30:41;100508.34;;;9.12;62.40
65553;BME280;52465;51.560;14.368;2023-04-07T02:33:07;100468.13;;;8.85;62.22
65553;BME280;52465;51.560;14.368;2023-04-07T02:35:32;100503.41;;;9.09;62.28
65553;BME280;52465;51.560;14.368;2023-04-07T02:40:38;100502.06;;;9.05;61.76
65553;BME280;52465;51.560;14.368;2023-04-07T02:43:03;100459.63;;;8.83;62.36
65553;BME280;52465;51.560;14.368;2023-04-07T02:45:29;100509.47;;;9.09;61.82
65553;BME280;52465;51.560;14.368;2023-04-07T02:47:55;100422.84;;;8.57;62.19
65553;BME280;52465;51.560;14.368;2023-04-07T02:50:21;100491.06;;;9.01;62.06
65553;BME280;52465;51.560;14.368;2023-04-07T02:52:46;100465.41;;;8.87;62.21
65553;BME280;52465;51.560;14.368;2023-04-07T03:04:54;100457.16;;;8.82;63.20
65553;BME280;52465;51.560;14.368;2023-04-07T03:07:20;100473.06;;;8.98;63.08
65553;BME280;52465;51.560;14.368;2023-04-07T03:09:45;100468.38;;;9.01;62.75
65553;BME280;52465;51.560;14.368;2023-04-07T03:12:10;100484.03;;;9.11;62.61
65553;BME280;52465;51.560;14.368;2023-04-07T03:14:37;100459.88;;;8.99;62.25
65553;BME280;52465;51.560;14.368;2023-04-07T03:17:05;100477.69;;;9.14;62.24
65553;BME280;52465;51.560;14.368;2023-04-07T03:19:34;100471.63;;;9.13;62.65
65553;BME280;52465;51.560;14.368;2023-04-07T03:22:02;100470.31;;;9.09;61.71
65553;BME280;52465;51.560;14.368;2023-04-07T03:24:28;100397.16;;;8.62;62.49
65553;BME280;52465;51.560;14.368;2023-04-07T03:26:54;100475.38;;;9.11;62.08
65553;BME280;52465;51.560;14.368;2023-04-07T03:29:20;100463.00;;;9.03;62.11
65553;BME280;52465;51.560;14.368;2023-04-07T03:31:45;100470.31;;;9.09;62.40
65553;BME280;52465;51.560;14.368;2023-04-07T03:34:11;100430.09;;;8.83;62.21
65553;BME280;52465;51.560;14.368;2023-04-07T03:36:37;100473.19;;;9.06;61.70
65553;BME280;52465;51.560;14.368;2023-04-07T03:39:03;100479.63;;;9.02;61.84
65553;BME280;52465;51.560;14.368;2023-04-07T03:41:29;100387.72;;;8.42;61.78
65553;BME280;52465;51.560;14.368;2023-04-07T03:43:56;100419.81;;;8.71;61.43
65553;BME280;52465;51.560;14.368;2023-04-07T03:46:22;100373.13;;;8.30;61.70
65553;BME280;52465;51.560;14.368;2023-04-07T03:48:51;100458.25;;;8.89;61.98
65553;BME280;52465;51.560;14.368;2023-04-07T03:51:17;100442.19;;;8.74;61.57
65553;BME280;52465;51.560;14.368;2023-04-07T03:53:46;100456.47;;;8.80;61.43
65553;BME280;52465;51.560;14.368;2023-04-07T04:05:54;100468.16;;;8.76;61.96
65553;BME280;52465;51.560;14.368;2023-04-07T04:08:20;100475.16;;;8.85;61.75
65553;BME280;52465;51.560;14.368;2023-04-07T04:10:45;100474.59;;;8.91;62.19
65553;BME280;52465;51.560;14.368;2023-04-07T04:13:11;100457.44;;;8.79;61.66
65553;BME280;52465;51.560;14.368;2023-04-07T04:15:37;100474.59;;;8.91;61.60
65553;BME280;52465;51.560;14.368;2023-04-07T04:18:02;100460.44;;;8.84;61.30
65553;BME280;52465;51.560;14.368;2023-04-07T04:20:28;100433.69;;;8.62;61.27
65553;BME280;52465;51.560;14.368;2023-04-07T04:22:54;100429.16;;;8.64;61.34
65553;BME280;52465;51.560;14.368;2023-04-07T04:35:25;100434.41;;;8.55;62.12
65553;BME280;52465;51.560;14.368;2023-04-07T04:37:51;100469.66;;;8.88;61.35
65553;BME280;52465;51.560;14.368;2023-04-07T04:40:17;100473.59;;;8.92;61.74
65553;BME280;52465;51.560;14.368;2023-04-07T04:42:42;100436.28;;;8.72;61.72
65553;BME280;52465;51.560;14.368;2023-04-07T04:45:09;100462.91;;;8.85;61.39
65553;BME280;52465;51.560;14.368;2023-04-07T04:47:35;100440.84;;;8.70;61.54
65553;BME280;52465;51.560;14.368;2023-04-07T04:50:04;100458.41;;;8.78;61.37
65553;BME280;52465;51.560;14.368;2023-04-07T04:52:30;100468.28;;;8.84;60.90
65553;BME280;52465;51.560;14.368;2023-04-07T04:54:56;100462.50;;;8.80;61.13
65553;BME280;52465;51.560;14.368;2023-04-07T04:57:21;100399.78;;;8.33;61.30
65553;BME280;52465;51.560;14.368;2023-04-07T04:59:46;100481.06;;;8.87;60.71
65553;BME280;52465;51.560;14.368;2023-04-07T05:02:12;100425.34;;;8.49;61.35
65553;BME280;52465;51.560;14.368;2023-04-07T05:04:37;100473.38;;;8.76;61.56
65553;BME280;52465;51.560;14.368;2023-04-07T05:07:03;100472.94;;;8.80;60.90
65553;BME280;52465;51.560;14.368;2023-04-07T05:09:29;100478.88;;;8.82;61.10
65553;BME280;52465;51.560;14.368;2023-04-07T05:11:54;100431.63;;;8.46;61.39
65553;BME280;52465;51.560;14.368;2023-04-07T05:14:20;100459.22;;;8.68;60.81
65553;BME280;52465;51.560;14.368;2023-04-07T05:16:45;100470.34;;;8.80;60.99
65553;BME280;52465;51.560;14.368;2023-04-07T05:19:11;100482.72;;;8.78;61.75
65553;BME280;52465;51.560;14.368;2023-04-07T05:21:36;100454.41;;;8.64;60.93
65553;BME280;52465;51.560;14.368;2023-04-07T05:24:01;100479.97;;;8.80;61.00
65553;BME280;52465;51.560;14.368;2023-04-07T05:26:27;100483.84;;;8.76;61.56
65553;BME280;52465;51.560;14.368;2023-04-07T05:28:55;100470.38;;;8.70;61.29
65553;BME280;52465;51.560;14.368;2023-04-07T05:31:21;100444.84;;;8.55;61.21
65553;BME280;52465;51.560;14.368;2023-04-07T05:33:47;100439.19;;;8.50;61.19
65553;BME280;52465;51.560;14.368;2023-04-07T05:36:12;100382.91;;;7.99;61.10
65553;BME280;52465;51.560;14.368;2023-04-07T05:38:41;100478.88;;;8.72;60.94
65553;BME280;52465;51.560;14.368;2023-04-07T05:41:07;100472.84;;;8.62;61.19
65553;BME280;52465;51.560;14.368;2023-04-07T05:43:32;100461.31;;;8.55;61.71
65553;BME280;52465;51.560;14.368;2023-04-07T05:46:22;100487.38;;;8.74;61.36
65553;BME280;52465;51.560;14.368;2023-04-07T05:51:33;100469.97;;;8.46;62.14
65553;BME280;52465;51.560;14.368;2023-04-07T05:54:00;100502.78;;;8.68;61.99
65553;BME280;52465;51.560;14.368;2023-04-07T05:56:28;100465.16;;;8.51;62.08
65553;BME280;52465;51.560;14.368;2023-04-07T05:58:53;100485.47;;;8.57;61.63
65553;BME280;52465;51.560;14.368;2023-04-07T06:01:22;100492.59;;;8.74;62.41
65553;BME280;52465;51.560;14.368;2023-04-07T06:03:48;100473.53;;;8.64;61.26
65553;BME280;52465;51.560;14.368;2023-04-07T06:06:14;100473.13;;;8.59;61.84
65553;BME280;52465;51.560;14.368;2023-04-07T06:08:40;100474.47;;;8.63;61.97
65553;BME280;52465;51.560;14.368;2023-04-07T06:11:08;100506.34;;;8.77;61.65
65553;BME280;52465;51.560;14.368;2023-04-07T06:13:35;100459.94;;;8.51;61.91
65553;BME280;52465;51.560;14.368;2023-04-07T06:16:03;100495.09;;;8.76;60.85
65553;BME280;52465;51.560;14.368;2023-04-07T06:18:29;100488.19;;;8.75;61.47
65553;BME280;52465;51.560;14.368;2023-04-07T06:20:55;100486.97;;;8.69;61.68
65553;BME280;52465;51.560;14.368;2023-04-07T06:23:20;100483.53;;;8.69;61.03
65553;BME280;52465;51.560;14.368;2023-04-07T06:25:46;100476.00;;;8.66;61.84
65553;BME280;52465;51.560;14.368;2023-04-07T06:28:16;100483.84;;;8.76;61.73
65553;BME280;52465;51.560;14.368;2023-04-07T06:30:43;100486.56;;;8.74;61.08
65553;BME280;52465;51.560;14.368;2023-04-07T06:33:11;100461.88;;;8.59;61.74
65553;BME280;52465;51.560;14.368;2023-04-07T06:35:39;100476.53;;;8.69;61.85
65553;BME280;52465;51.560;14.368;2023-04-07T06:38:12;100479.28;;;8.68;61.51
65553;BME280;52465;51.560;14.368;2023-04-07T06:40:38;100447.19;;;8.48;61.37
65553;BME280;52465;51.560;14.368;2023-04-07T06:43:03;100480.50;;;8.73;60.97
65553;BME280;52465;51.560;14.368;2023-04-07T06:45:29;100437.16;;;8.43;61.33
65553;BME280;52465;51.560;14.368;2023-04-07T06:47:55;100487.69;;;8.71;61.20
65553;BME280;52465;51.560;14.368;2023-04-07T06:50:23;100486.69;;;8.72;61.44
65553;BME280;52465;51.560;14.368;2023-04-07T06:52:50;100486.03;;;8.70;61.64
65553;BME280;52465;51.560;14.368;2023-04-07T06:55:18;100486.84;;;8.71;61.37
65553;BME280;52465;51.560;14.368;2023-04-07T06:57:46;100471.19;;;8.61;62.06
65553;BME280;52465;51.560;14.368;2023-04-07T07:00:13;100490.44;;;8.70;61.24
65553;BME280;52465;51.560;14.368;2023-04-07T07:02:40;100459.41;;;8.47;61.58
65553;BME280;52465;51.560;14.368;2023-04-07T07:05:05;100483.69;;;8.67;61.48
65553;BME280;52465;51.560;14.368;2023-04-07T07:07:32;100457.72;;;8.46;61.46
65553;BME280;52465;51.560;14.368;2023-04-07T07:09:57;100492.06;;;8.71;61.65
65553;BME280;52465;51.560;14.368;2023-04-07T07:12:23;100471.47;;;8.58;61.56
65553;BME280;52465;51.560;14.368;2023-04-07T07:14:49;100430.00;;;8.36;61.18
65553;BME280;52465;51.560;14.368;2023-04-07T07:17:14;100462.28;;;8.54;61.97
65553;BME280;52465;51.560;14.368;2023-04-07T07:19:43;100492.91;;;8.71;61.84
65553;BME280;52465;51.560;14.368;2023-04-07T07:22:09;100472.44;;;8.57;61.25
65553;BME280;52465;51.560;14.368;2023-04-07T07:24:35;100494.13;;;8.67;61.61
65553;BME280;52465;51.560;14.368;2023-04-07T07:27:01;100503.47;;;8.70;61.24
65553;BME280;52465;51.560;14.368;2023-04-07T07:29:28;100478.06;;;8.53;61.68
65553;BME280;52465;51.560;14.368;2023-04-07T07:31:55;100459.81;;;8.43;61.86
65553;BME280;52465;51.560;14.368;2023-04-07T07:34:21;100507.72;;;8.71;61.56
65553;BME280;52465;51.560;14.368;2023-04-07T07:36:46;100441.66;;;8.22;61.39
65553;BME280;52465;51.560;14.368;2023-04-07T07:39:12;100495.78;;;8.59;61.64
65553;BME280;52465;51.560;14.368;2023-04-07T07:41:38;100473.13;;;8.50;61.60
65553;BME280;52465;51.560;14.368;2023-04-07T07:44:03;100496.06;;;8.65;61.67
65553;BME280;52465;51.560;14.368;2023-04-07T07:46:29;100437.41;;;8.21;61.48
65553;BME280;52465;51.560;14.368;2023-04-07T07:49:33;100485.47;;;8.57;62.01
65553;BME280;52465;51.560;14.368;2023-04-07T07:51:59;100496.47;;;8.61;61.36
65553;BME280;52465;51.560;14.368;2023-04-07T07:54:25;100497.28;;;8.61;61.35
65553;BME280;52465;51.560;14.368;2023-04-07T07:56:53;100512.13;;;8.70;61.39
65553;BME280;52465;51.560;14.368;2023-04-07T07:59:19;100458.28;;;8.31;61.88
65553;BME280;52465;51.560;14.368;2023-04-07T08:01:45;100500.16;;;8.58;61.70
65553;BME280;52465;51.560;14.368;2023-04-07T08:04:11;100514.59;;;8.72;61.68
65553;BME280;52465;51.560;14.368;2023-04-07T08:06:37;100488.38;;;8.54;61.53
65553;BME280;52465;51.560;14.368;2023-04-07T08:09:03;100490.56;;;8.59;61.86
65553;BME280;52465;51.560;14.368;2023-04-07T08:11:28;100491.41;;;8.59;61.92
65553;BME280;52465;51.560;14.368;2023-04-07T08:13:54;100496.72;;;8.58;61.43
65553;BME280;52465;51.560;14.368;2023-04-07T08:16:20;100502.50;;;8.61;61.71
65553;BME280;52465;51.560;14.368;2023-04-07T08:18:46;100517.22;;;8.72;61.53
65553;BME280;52465;51.560;14.368;2023-04-07T08:21:12;100521.31;;;8.74;61.61
65553;BME280;52465;51.560;14.368;2023-04-07T08:23:37;100490.97;;;8.54;61.91
65553;BME280;52465;51.560;14.368;2023-04-07T08:26:04;100485.75;;;8.54;62.12
65553;BME280;52465;51.560;14.368;2023-04-07T08:28:30;100524.06;;;8.73;61.87
65553;BME280;52465;51.560;14.368;2023-04-07T08:30:56;100524.06;;;8.73;61.34
65553;BME280;52465;51.560;14.368;2023-04-07T08:33:22;100494.25;;;8.56;61.39
65553;BME280;52465;51.560;14.368;2023-04-07T08:35:47;100510.75;;;8.66;62.04
65553;BME280;52465;51.560;14.368;2023-04-07T08:38:13;100498.81;;;8.54;61.83
65553;BME280;52465;51.560;14.368;2023-04-07T08:40:39;100522.28;;;8.73;61.51
65553;BME280;52465;51.560;14.368;2023-04-07T08:43:07;100519.81;;;8.72;61.43
65553;BME280;52465;51.560;14.368;2023-04-07T08:45:37;100540.41;;;8.75;61.91
65553;BME280;52465;51.560;14.368;2023-04-07T08:48:12;100522.69;;;8.69;61.68
65553;BME280;52465;51.560;14.368;2023-04-07T08:50:43;100515.69;;;8.69;61.56
65553;BME280;52465;51.560;14.368;2023-04-07T08:53:10;100526.41;;;8.76;61.90
65553;BME280;52465;51.560;14.368;2023-04-07T08:55:37;100530.81;;;8.76;61.86
65553;BME280;52465;51.560;14.368;2023-04-07T08:58:03;100445.38;;;8.19;61.73
65553;BME280;52465;51.560;14.368;2023-04-07T09:00:28;100525.59;;;8.76;62.24
65553;BME280;52465;51.560;14.368;2023-04-07T09:02:54;100513.06;;;8.69;61.82
65553;BME280;52465;51.560;14.368;2023-04-07T09:05:21;100461.88;;;8.39;61.36
65553;BME280;52465;51.560;14.368;2023-04-07T09:07:49;100522.84;;;8.77;61.35
65553;BME280;52465;51.560;14.368;2023-04-07T09:10:14;100511.84;;;8.73;61.25
65553;BME280;52465;51.560;14.368;2023-04-07T09:12:40;100530.53;;;8.79;61.71
65553;BME280;52465;51.560;14.368;2023-04-07T09:15:06;100519.53;;;8.75;62.00
65553;BME280;52465;51.560;14.368;2023-04-07T09:17:33;100523.66;;;8.78;61.58
65553;BME280;52465;51.560;14.368;2023-04-07T09:20:00;100514.44;;;8.73;61.37
65553;BME280;52465;51.560;14.368;2023-04-07T09:22:34;100473.13;;;8.50;62.22
65553;BME280;52465;51.560;14.368;2023-04-07T09:25:19;100515.81;;;8.78;61.56
65553;BME280;52465;51.560;14.368;2023-04-07T09:27:58;100516.50;;;8.80;61.63
65553;BME280;52465;51.560;14.368;2023-04-07T09:30:25;100503.47;;;8.70;61.82
65553;BME280;52465;51.560;14.368;2023-04-07T09:32:50;100519.13;;;8.80;61.63
65553;BME280;52465;51.560;14.368;2023-04-07T09:35:16;100494.81;;;8.69;61.88
65553;BME280;52465;51.560;14.368;2023-04-07T09:37:41;100501.69;;;8.70;61.89
65553;BME280;52465;51.560;14.368;2023-04-07T09:49:25;100495.50;;;8.71;63.23
65553;BME280;52465;51.560;14.368;2023-04-07T09:52:00;100501.09;;;8.86;62.58
65553;BME280;52465;51.560;14.368;2023-04-07T09:54:39;100502.47;;;8.90;62.68
65553;BME280;52465;51.560;14.368;2023-04-07T09:57:08;100485.31;;;8.88;62.12
65553;BME280;52465;51.560;14.368;2023-04-07T09:59:36;100492.44;;;8.86;61.81
65553;BME280;52465;51.560;14.368;2023-04-07T10:02:02;100459.63;;;8.73;61.66
65553;BME280;52465;51.560;14.368;2023-04-07T10:04:28;100415.16;;;8.46;62.16
65553;BME280;52465;51.560;14.368;2023-04-07T10:06:55;100480.22;;;8.86;62.14
65553;BME280;52465;51.560;14.368;2023-04-07T10:09:26;100489.00;;;8.95;61.98
65553;BME280;52465;51.560;14.368;2023-04-07T10:11:52;100491.63;;;8.95;61.79
65553;BME280;52465;51.560;14.368;2023-04-07T10:14:21;100497.50;;;8.97;61.93
65553;BME280;52465;51.560;14.368;2023-04-07T10:16:49;100486.41;;;8.95;61.42
65553;BME280;52465;51.560;14.368;2023-04-07T10:19:18;100488.19;;;9.04;61.54
65553;BME280;52465;51.560;14.368;2023-04-07T10:21:44;100466.75;;;8.91;61.02
65553;BME280;52465;51.560;14.368;2023-04-07T10:24:32;100496.53;;;9.17;61.11
65553;BME280;52465;51.560;14.368;2023-04-07T10:27:06;100473.28;;;9.14;60.71
65553;BME280;52465;51.560;14.368;2023-04-07T10:29:39;100476.59;;;9.16;60.82
65553;BME280;52465;51.560;14.368;2023-04-07T10:32:06;100496.44;;;9.37;60.94
65553;BME280;52465;51.560;14.368;2023-04-07T10:37:17;100502.47;;;9.47;60.25
65553;BME280;52465;51.560;14.368;2023-04-07T10:39:49;100497.13;;;9.48;60.31
65553;BME280;52465;51.560;14.368;2023-04-07T10:45:04;100480.47;;;9.49;60.38
65553;BME280;52465;51.560;14.368;2023-04-07T10:47:29;100471.09;;;9.47;60.37
65553;BME280;52465;51.560;14.368;2023-04-07T10:50:14;100495.00;;;9.62;60.59
65553;BME280;52465;51.560;14.368;2023-04-07T10:52:44;100481.25;;;9.60;60.36
65553;BME280;52465;51.560;14.368;2023-04-07T10:55:41;100494.25;;;9.69;60.43
65553;BME280;52465;51.560;14.368;2023-04-07T10:58:27;100492.19;;;9.73;59.97
65553;BME280;52465;51.560;14.368;2023-04-07T11:06:34;100461.59;;;9.56;59.88
65553;BME280;52465;51.560;14.368;2023-04-07T11:09:01;100492.56;;;9.78;59.92
65553;BME280;52465;51.560;14.368;2023-04-07T11:11:37;100481.88;;;9.71;60.07
65553;BME280;52465;51.560;14.368;2023-04-07T11:14:04;100455.41;;;9.57;60.24
65553;BME280;52465;51.560;14.368;2023-04-07T11:16:35;100498.03;;;9.85;60.01
65553;BME280;52465;51.560;14.368;2023-04-07T11:19:00;100494.44;;;9.86;60.33
65553;BME280;52465;51.560;14.368;2023-04-07T11:21:26;100502.16;;;9.87;59.84
65553;BME280;52465;51.560;14.368;2023-04-07T11:23:51;100497.88;;;9.86;60.22
65553;BME280;52465;51.560;14.368;2023-04-07T11:26:17;100493.94;;;9.82;60.17
65553;BME280;52465;51.560;14.368;2023-04-07T11:28:47;100505.44;;;9.89;59.75
65553;BME280;52465;51.560;14.368;2023-04-07T11:31:20;100507.91;;;9.91;59.97
65553;BME280;52465;51.560;14.368;2023-04-07T11:34:11;100499.84;;;9.84;60.20
65553;BME280;52465;51.560;14.368;2023-04-07T11:36:38;100492.44;;;9.79;60.29
65553;BME280;52465;51.560;14.368;2023-04-07T11:39:17;100506.13;;;9.91;60.15
65553;BME280;52465;51.560;14.368;2023-04-07T11:41:47;100507.75;;;9.92;59.92
65553;BME280;52465;51.560;14.368;2023-04-07T11:44:14;100479.13;;;9.73;59.99
65553;BME280;52465;51.560;14.368;2023-04-07T11:46:59;100509.56;;;9.92;60.12
65553;BME280;52465;51.560;14.368;2023-04-07T11:49:29;100512.16;;;9.92;59.95
65553;BME280;52465;51.560;14.368;2023-04-07T11:52:00;100468.03;;;9.61;59.91
65553;BME280;52465;51.560;14.368;2023-04-07T11:54:26;100510.38;;;9.92;60.07
65553;BME280;52465;51.560;14.368;2023-04-07T11:56:52;100508.72;;;9.91;59.95
65553;BME280;52465;51.560;14.368;2023-04-07T11:59:24;100498.03;;;9.85;60.20
65553;BME280;52465;51.560;14.368;2023-04-07T12:01:50;100493.34;;;9.88;59.80
65553;BME280;52465;51.560;14.368;2023-04-07T12:04:17;100508.72;;;9.91;60.05
65553;BME280;52465;51.560;14.368;2023-04-07T12:06:44;100512.88;;;9.94;59.88
65553;BME280;52465;51.560;14.368;2023-04-07T12:11:55;100496.41;;;9.84;60.11
65553;BME280;52465;51.560;14.368;2023-04-07T12:14:23;100410.97;;;9.29;59.63
65553;BME280;52465;51.560;14.368;2023-04-07T12:16:48;100507.75;;;9.92;60.20
65553;BME280;52465;51.560;14.368;2023-04-07T12:19:14;100511.06;;;9.94;59.83
65553;BME280;52465;51.560;14.368;2023-04-07T12:21:40;100470.88;;;9.68;59.92
65553;BME280;52465;51.560;14.368;2023-04-07T12:24:06;100502.03;;;9.89;60.22
65553;BME280;52465;51.560;14.368;2023-04-07T12:26:31;100516.31;;;9.94;60.18
65553;BME280;52465;51.560;14.368;2023-04-07T12:28:57;100516.16;;;9.96;60.38
65553;BME280;52465;51.560;14.368;2023-04-07T12:31:31;100521.22;;;9.97;60.07
65553;BME280;52465;51.560;14.368;2023-04-07T12:33:57;100509.56;;;9.92;59.95
65553;BME280;52465;51.560;14.368;2023-04-07T12:36:25;100515.31;;;9.95;59.87
65553;BME280;52465;51.560;14.368;2023-04-07T12:38:55;100492.81;;;9.85;60.25
65553;BME280;52465;51.560;14.368;2023-04-07T12:41:21;100500.25;;;9.79;60.19
65553;BME280;52465;51.560;14.368;2023-04-07T12:43:48;100513.69;;;9.94;60.19
65553;BME280;52465;51.560;14.368;2023-04-07T12:46:14;100496.41;;;9.84;60.17
65553;BME280;52465;51.560;14.368;2023-04-07T12:48:39;100513.53;;;9.96;60.41
65553;BME280;52465;51.560;14.368;2023-04-07T12:51:06;100507.63;;;9.94;60.04
65553;BME280;52465;51.560;14.368;2023-04-07T12:53:34;100509.28;;;9.95;60.51
65553;BME280;52465;51.560;14.368;2023-04-07T12:56:00;100518.38;;;9.91;60.35
65553;BME280;52465;51.560;14.368;2023-04-07T12:58:25;100507.38;;;9.87;60.04
65553;BME280;52465;51.560;14.368;2023-04-07T13:00:52;100510.25;;;9.94;60.27
65553;BME280;52465;51.560;14.368;2023-04-07T13:03:20;100509.56;;;9.92;60.59
65553;BME280;52465;51.560;14.368;2023-04-07T13:05:46;100482.16;;;9.68;60.51
65553;BME280;52465;51.560;14.368;2023-04-07T13:08:12;100500.00;;;9.83;60.33
65553;BME280;52465;51.560;14.368;2023-04-07T13:10:38;100495.84;;;9.80;60.47
65553;BME280;52465;51.560;14.368;2023-04-07T13:13:04;100513.44;;;9.88;59.98
65553;BME280;52465;51.560;14.368;2023-04-07T13:15:30;100511.78;;;9.87;60.60
65553;BME280;52465;51.560;14.368;2023-04-07T13:17:55;100523.34;;;9.94;60.60
65553;BME280;52465;51.560;14.368;2023-04-07T13:20:24;100514.66;;;9.93;60.16
65553;BME280;52465;51.560;14.368;2023-04-07T13:22:52;100519.03;;;9.93;60.24
65553;BME280;52465;51.560;14.368;2023-04-07T13:25:17;100501.72;;;9.92;60.26
65553;BME280;52465;51.560;14.368;2023-04-07T13:27:42;100518.09;;;9.94;60.44
65553;BME280;52465;51.560;14.368;2023-04-07T13:30:08;100493.09;;;9.81;60.83
65553;BME280;52465;51.560;14.368;2023-04-07T13:32:36;100501.63;;;9.84;60.10
65553;BME280;52465;51.560;14.368;2023-04-07T13:35:02;100427.56;;;9.38;60.54
65553;BME280;52465;51.560;14.368;2023-04-07T13:37:28;100462.97;;;9.60;60.15
65553;BME280;52465;51.560;14.368;2023-04-07T13:39:53;100476.94;;;9.68;60.61
65553;BME280;52465;51.560;14.368;2023-04-07T13:42:19;100496.91;;;9.87;60.45
65553;BME280;52465;51.560;14.368;2023-04-07T13:44:45;100471.44;;;9.71;60.46
65553;BME280;52465;51.560;14.368;2023-04-07T13:47:12;100458.56;;;9.60;60.41
65553;BME280;52465;51.560;14.368;2023-04-07T13:49:44;100439.47;;;9.50;60.48
65553;BME280;52465;51.560;14.368;2023-04-07T13:52:09;100508.88;;;9.90;60.77
65553;BME280;52465;51.560;14.368;2023-04-07T13:54:34;100506.28;;;9.90;60.68
65553;BME280;52465;51.560;14.368;2023-04-07T13:57:02;100509.88;;;9.89;60.41
65553;BME280;52465;51.560;14.368;2023-04-07T13:59:28;100501.31;;;9.87;60.64